createdAt,value
2019-01-20T00:08:41.469Z,3.50
2019-01-20T00:18:45.057Z,3.87
2019-01-20T00:28:48.657Z,3.70
2019-01-20T00:38:52.218Z,4.40
2019-01-20T00:48:55.791Z,3.30
2019-01-20T00:58:59.605Z,3.93
2019-01-20T01:09:04.041Z,4.00
2019-01-20T01:19:07.778Z,5.37
2019-01-20T01:29:11.342Z,3.93
2019-01-20T01:39:14.906Z,3.43
2019-01-20T01:49:18.482Z,3.03
2019-01-20T01:59:22.046Z,3.87
2019-01-20T02:09:25.846Z,3.37
2019-01-20T02:19:29.422Z,3.30
2019-01-20T02:29:32.989Z,3.37
2019-01-20T02:39:36.550Z,4.40
2019-01-20T02:49:40.115Z,3.83
2019-01-20T02:59:43.690Z,3.13
2019-01-20T03:09:47.274Z,3.87
2019-01-20T03:19:50.830Z,3.50
2019-01-20T03:29:54.402Z,3.70
2019-01-20T03:39:57.973Z,3.33
2019-01-20T03:50:01.569Z,3.60
2019-01-20T04:00:07.054Z,4.53
2019-01-20T04:10:12.418Z,3.53
2019-01-20T04:20:16.003Z,3.80
2019-01-20T04:30:20.161Z,3.60
2019-01-20T04:40:24.184Z,3.40
2019-01-20T04:50:27.759Z,3.57
2019-01-20T05:00:31.322Z,3.80
2019-01-20T05:10:34.914Z,4.03
2019-01-20T05:20:38.484Z,5.13
2019-01-20T05:30:42.058Z,5.20
2019-01-20T05:40:45.854Z,5.33
2019-01-20T05:50:49.431Z,4.97
2019-01-20T06:00:52.993Z,5.30
2019-01-20T06:10:56.567Z,4.93
2019-01-20T06:21:00.155Z,4.93
2019-01-20T06:31:03.720Z,5.43
2019-01-20T06:41:07.279Z,14.47
2019-01-20T06:51:11.122Z,11.27
2019-01-20T07:01:14.694Z,9.80
2019-01-20T07:11:18.302Z,8.90
2019-01-20T07:21:21.874Z,12.27
2019-01-20T07:31:25.711Z,9.30
2019-01-20T07:41:29.277Z,9.73
2019-01-20T07:51:32.839Z,14.40
2019-01-20T08:01:36.407Z,11.40
2019-01-20T08:11:40.842Z,9.77
2019-01-20T08:21:44.550Z,10.30
2019-01-20T08:31:48.130Z,9.23
2019-01-20T08:41:51.695Z,9.60
2019-01-20T08:51:55.259Z,10.00
2019-01-20T09:01:58.817Z,8.10
2019-01-20T09:12:02.454Z,5.50
2019-01-20T09:22:06.060Z,7.00
2019-01-20T09:32:09.624Z,6.57
2019-01-20T09:42:13.183Z,10.83
2019-01-20T09:52:16.811Z,6.00
2019-01-20T10:02:20.406Z,5.53
2019-01-20T10:12:24.000Z,6.70
2019-01-20T10:22:28.342Z,4.77
2019-01-20T10:32:32.070Z,9.33
2019-01-20T10:42:35.746Z,8.73
2019-01-20T10:52:39.720Z,9.83
2019-01-20T11:02:56.391Z,6.20
2019-01-20T11:13:00.030Z,6.83
2019-01-20T11:23:04.549Z,5.57
2019-01-20T11:33:08.314Z,4.80
2019-01-20T11:43:12.159Z,7.67
2019-01-20T11:53:15.834Z,10.40
2019-01-20T12:03:28.559Z,8.63
2019-01-20T12:13:32.543Z,7.77
2019-01-20T12:23:36.121Z,12.57
2019-01-20T12:33:39.714Z,10.87
2019-01-20T12:43:43.272Z,9.30
2019-01-20T12:53:47.007Z,10.23
2019-01-20T13:03:50.631Z,7.97
2019-01-20T13:13:54.262Z,11.10
2019-01-20T13:23:57.850Z,8.80
2019-01-20T13:34:01.410Z,11.70
2019-01-20T13:44:05.215Z,10.70
2019-01-20T13:54:08.778Z,13.27
2019-01-20T14:04:12.345Z,14.90
2019-01-20T14:14:15.922Z,15.87
2019-01-20T14:24:19.705Z,14.23
2019-01-20T14:34:23.279Z,16.57
2019-01-20T14:44:26.934Z,14.00
2019-01-20T14:54:30.530Z,13.93
2019-01-20T15:04:34.110Z,12.47
2019-01-20T15:14:37.677Z,7.10
2019-01-20T15:24:41.278Z,8.17
2019-01-20T15:34:44.874Z,8.53
2019-01-20T15:44:48.426Z,8.37
2019-01-20T15:54:51.998Z,9.13
2019-01-20T16:04:59.574Z,10.40
2019-01-20T16:15:03.177Z,11.50
2019-01-20T16:25:11.683Z,11.20
2019-01-20T16:35:15.402Z,15.63
2019-01-20T16:45:32.905Z,15.10
2019-01-20T16:55:36.598Z,16.13
2019-01-20T17:05:40.649Z,11.90
2019-01-20T17:15:45.435Z,8.23
2019-01-20T17:25:49.012Z,14.67
2019-01-20T17:35:52.597Z,12.03
2019-01-20T17:45:56.179Z,10.70
2019-01-20T17:55:59.750Z,11.60
2019-01-20T18:06:03.342Z,11.93
2019-01-20T18:16:06.910Z,9.13
2019-01-20T18:26:12.547Z,12.67
2019-01-20T18:36:16.135Z,16.77
2019-01-20T18:46:19.742Z,16.13
2019-01-20T18:56:23.378Z,15.57
2019-01-20T19:06:26.963Z,14.97
2019-01-20T19:16:30.675Z,17.97
2019-01-20T19:26:34.254Z,15.57
2019-01-20T19:36:37.817Z,13.53
2019-01-20T19:46:41.383Z,10.70
2019-01-20T19:56:44.962Z,11.17
2019-01-20T20:06:48.551Z,11.83
2019-01-20T20:16:52.138Z,6.97
2019-01-20T20:26:55.727Z,6.37
2019-01-20T20:37:00.401Z,6.40
2019-01-20T20:47:04.257Z,9.60
2019-01-20T20:57:07.844Z,9.90
2019-01-20T21:07:11.663Z,6.67
2019-01-20T21:17:15.366Z,12.73
2019-01-20T21:27:19.026Z,11.57
2019-01-20T21:37:22.819Z,15.20
2019-01-20T21:47:26.642Z,10.97
2019-01-20T21:57:30.238Z,10.53
2019-01-20T22:07:34.018Z,10.73
2019-01-20T22:17:37.938Z,16.60
2019-01-20T22:27:42.378Z,9.37
2019-01-20T22:37:46.886Z,7.80
2019-01-20T22:47:50.450Z,9.77
2019-01-20T22:57:54.779Z,8.30
2019-01-20T23:07:58.357Z,11.63
2019-01-20T23:18:01.961Z,9.43
2019-01-20T23:28:05.578Z,4.87
2019-01-20T23:38:09.181Z,3.67
2019-01-20T23:48:12.783Z,10.17
2019-01-20T23:58:16.372Z,10.60
